Time;durP1;ratioP1;P1;durP2;ratioP2;P2;SDS_P1;SDS_P2;PMS_P1;PMS_P2;Temp;Humidity;BMP_temperature;BMP_pressure;BME280_temperature;BME280_humidity;BME280_pressure;Samples;Min_cycle;Max_cycle;Signal;HPM_P1;HPM_P2
2023/06/10 00:00:45;;;;;;;8.23;2.73;;;20.30;99.90;;;;;;5071719;28;20223;-73
2023/06/10 00:03:13;;;;;;;6.20;2.17;;;19.90;99.90;;;;;;5071904;28;20263;-71
2023/06/10 00:05:41;;;;;;;8.43;2.53;;;20.10;99.90;;;;;;5071878;28;20194;-71
2023/06/10 00:08:08;;;;;;;9.07;2.00;;;20.30;99.90;;;;;;5072227;28;20282;-71
2023/06/10 00:10:39;;;;;;;4.20;1.87;;;20.20;99.90;;;;;;5053209;28;20234;-70
2023/06/10 00:13:11;;;;;;;10.13;2.93;;;20.60;99.90;;;;;;5070976;28;20187;-68
2023/06/10 00:15:38;;;;;;;6.73;1.90;;;20.60;99.90;;;;;;5071930;28;20179;-68
2023/06/10 00:18:09;;;;;;;6.77;2.00;;;21.10;99.90;;;;;;5070397;28;20290;-68
2023/06/10 00:20:37;;;;;;;7.83;2.10;;;21.30;99.90;;;;;;5071825;28;20321;-68
2023/06/10 00:23:08;;;;;;;3.80;1.10;;;21.70;99.90;;;;;;5074256;28;20190;-69
2023/06/10 00:25:35;;;;;;;6.07;1.17;;;21.50;96.40;;;;;;5075846;28;20575;-69
2023/06/10 00:28:03;;;;;;;4.77;1.27;;;20.90;93.10;;;;;;5075701;28;20283;-69
2023/06/10 00:30:30;;;;;;;3.27;1.27;;;20.90;93.20;;;;;;5075685;28;20671;-69
2023/06/10 00:32:58;;;;;;;2.67;1.00;;;20.70;89.80;;;;;;5075732;28;20171;-69
2023/06/10 00:35:25;;;;;;;3.83;1.37;;;20.80;86.10;;;;;;5075751;28;20246;-69
2023/06/10 00:37:52;;;;;;;4.30;1.20;;;21.00;87.20;;;;;;5075732;28;20184;-69
2023/06/10 00:40:20;;;;;;;6.10;1.30;;;20.90;85.90;;;;;;5075644;28;20294;-69
2023/06/10 00:42:47;;;;;;;3.17;1.20;;;21.10;86.40;;;;;;5075490;28;20191;-69
2023/06/10 00:45:14;;;;;;;2.97;1.33;;;21.10;80.40;;;;;;5075217;28;20180;-69
2023/06/10 00:47:42;;;;;;;2.97;1.17;;;20.80;78.40;;;;;;5075511;28;20176;-69
2023/06/10 00:50:10;;;;;;;2.57;1.10;;;21.00;78.60;;;;;;5075342;28;20648;-69
2023/06/10 00:52:38;;;;;;;3.57;0.97;;;21.00;74.80;;;;;;5075109;28;20200;-69
2023/06/10 00:55:07;;;;;;;1.37;0.70;;;20.90;72.50;;;;;;5075080;28;20183;-69
2023/06/10 00:57:35;;;;;;;2.60;1.23;;;20.70;71.60;;;;;;5075111;28;20638;-69
2023/06/10 01:00:07;;;;;;;3.47;1.27;;;20.50;75.60;;;;;;5074880;28;20233;-69
2023/06/10 01:02:34;;;;;;;2.13;1.20;;;20.60;75.80;;;;;;5075032;28;20180;-69
2023/06/10 01:05:03;;;;;;;5.23;1.23;;;20.90;70.80;;;;;;5074746;28;20539;-68
2023/06/10 01:07:53;;;;;;;3.70;1.17;;;20.90;73.20;;;;;;5075008;28;20199;-69
2023/06/10 01:10:34;;;;;;;3.77;1.20;;;21.00;72.90;;;;;;5075247;28;20197;-69
2023/06/10 01:13:04;;;;;;;2.63;1.27;;;20.90;73.20;;;;;;5074848;28;20203;-68
2023/06/10 01:15:36;;;;;;;3.30;1.30;;;21.20;71.00;;;;;;5074719;28;20174;-68
2023/06/10 01:18:08;;;;;;;6.03;1.53;;;20.90;70.60;;;;;;5074651;28;20251;-69
2023/06/10 01:20:42;;;;;;;3.07;1.10;;;20.80;72.20;;;;;;5074630;28;20207;-68
2023/06/10 01:23:11;;;;;;;3.13;1.27;;;21.20;69.10;;;;;;5074601;28;20172;-69
2023/06/10 01:25:46;;;;;;;2.27;1.20;;;21.20;69.20;;;;;;5074635;28;20183;-68
2023/06/10 01:28:21;;;;;;;3.70;1.37;;;21.20;74.40;;;;;;5074585;28;20675;-69
2023/06/10 01:31:03;;;;;;;4.87;1.20;;;21.40;70.60;;;;;;5074620;28;20183;-69
2023/06/10 01:33:37;;;;;;;4.03;1.30;;;21.20;71.50;;;;;;5073997;28;20249;-69
2023/06/10 01:36:05;;;;;;;5.77;1.60;;;21.30;71.70;;;;;;5074238;28;20171;-69
2023/06/10 01:38:39;;;;;;;6.93;1.47;;;21.60;70.40;;;;;;5074297;28;20179;-69
2023/06/10 01:41:08;;;;;;;4.97;1.10;;;21.90;69.60;;;;;;5074251;28;20410;-69
2023/06/10 01:43:37;;;;;;;4.93;1.70;;;21.60;68.70;;;;;;5074430;28;20189;-69
2023/06/10 01:46:06;;;;;;;4.40;1.20;;;22.00;68.40;;;;;;5056205;28;20595;-69
2023/06/10 01:48:48;;;;;;;7.63;1.60;;;22.10;66.80;;;;;;5074288;28;20210;-69
2023/06/10 01:51:16;;;;;;;4.57;1.43;;;21.90;63.80;;;;;;5074067;28;20266;-69
2023/06/10 01:53:43;;;;;;;3.90;1.20;;;22.10;65.70;;;;;;5073789;28;20595;-70
2023/06/10 01:56:16;;;;;;;3.83;1.23;;;21.70;64.50;;;;;;5073991;28;20199;-69
2023/06/10 01:58:44;;;;;;;3.33;1.63;;;22.10;70.50;;;;;;5073816;28;20186;-69
2023/06/10 02:04:33;;;;;;;3.93;1.40;;;22.60;59.20;;;;;;5073409;28;20206;-69
2023/06/10 02:07:04;;;;;;;7.57;1.37;;;22.10;58.80;;;;;;5073923;28;20241;-69
2023/06/10 02:09:34;;;;;;;5.10;1.40;;;21.70;58.80;;;;;;5074407;28;20179;-69
2023/06/10 02:12:06;;;;;;;5.17;1.00;;;21.70;65.30;;;;;;5073635;28;20668;-68
2023/06/10 02:14:43;;;;;;;3.83;1.20;;;21.80;57.30;;;;;;5073824;28;20250;-68
2023/06/10 02:17:12;;;;;;;3.93;1.50;;;22.10;59.90;;;;;;5073547;28;20230;-68
2023/06/10 02:19:42;;;;;;;3.73;1.40;;;22.40;64.40;;;;;;5073692;28;20210;-69
2023/06/10 02:22:12;;;;;;;6.63;1.50;;;22.30;60.50;;;;;;5073574;28;20183;-69
2023/06/10 02:24:42;;;;;;;2.57;1.13;;;22.40;60.10;;;;;;5073811;28;20175;-69
2023/06/10 02:27:10;;;;;;;3.80;1.13;;;22.60;62.00;;;;;;5073595;28;20172;-69
2023/06/10 02:29:41;;;;;;;6.27;1.40;;;22.60;59.30;;;;;;5073628;28;20507;-69
2023/06/10 02:32:08;;;;;;;3.40;0.90;;;22.60;56.50;;;;;;5055397;28;20180;-69
2023/06/10 02:34:38;;;;;;;5.23;1.30;;;22.40;50.90;;;;;;5073253;28;20183;-68
2023/06/10 02:37:06;;;;;;;2.20;0.80;;;22.20;49.60;;;;;;5073226;28;20192;-69
2023/06/10 02:39:33;;;;;;;2.97;1.10;;;22.10;48.00;;;;;;5073353;28;20176;-71
2023/06/10 02:42:01;;;;;;;3.83;1.10;;;22.40;49.20;;;;;;5073153;28;20252;-70
2023/06/10 02:44:31;;;;;;;2.93;0.97;;;22.60;47.10;;;;;;5073016;28;20197;-69
2023/06/10 02:46:58;;;;;;;3.33;1.10;;;22.50;47.20;;;;;;5072302;28;20518;-69
2023/06/10 02:49:28;;;;;;;4.53;1.30;;;22.40;48.90;;;;;;5072854;28;20633;-70
2023/06/10 02:51:56;;;;;;;2.57;0.70;;;22.40;46.90;;;;;;5073291;28;20179;-70
2023/06/10 02:54:24;;;;;;;6.03;1.10;;;23.00;48.30;;;;;;5072818;28;20592;-69
2023/06/10 02:56:54;;;;;;;4.70;1.43;;;23.50;43.80;;;;;;5073099;28;20255;-68
2023/06/10 02:59:22;;;;;;;7.40;1.07;;;22.80;40.60;;;;;;5072899;28;20175;-70
2023/06/10 03:01:49;;;;;;;3.93;0.93;;;22.70;43.10;;;;;;5072428;28;20222;-69
2023/06/10 03:04:18;;;;;;;2.00;0.90;;;22.10;33.80;;;;;;5072674;28;20202;-69
2023/06/10 03:06:45;;;;;;;2.07;0.80;;;21.10;35.00;;;;;;5072609;28;20179;-69
2023/06/10 03:09:15;;;;;;;1.63;0.73;;;21.70;35.90;;;;;;5072935;28;20233;-68
2023/06/10 03:11:43;;;;;;;2.03;0.73;;;21.90;34.80;;;;;;5072724;28;20199;-68
2023/06/10 03:14:10;;;;;;;2.47;0.90;;;22.10;31.60;;;;;;5072539;28;20179;-69
2023/06/10 03:16:40;;;;;;;2.50;1.10;;;22.10;28.60;;;;;;5072801;28;20175;-69
2023/06/10 03:19:08;;;;;;;1.50;0.73;;;21.90;31.50;;;;;;5072449;28;20281;-69
2023/06/10 03:21:37;;;;;;;4.90;1.30;;;21.90;29.70;;;;;;5072652;28;20237;-69
2023/06/10 03:24:05;;;;;;;1.97;1.07;;;21.90;31.70;;;;;;5072864;28;20210;-70
2023/06/10 03:26:32;;;;;;;2.33;0.63;;;21.90;32.80;;;;;;5072951;28;20179;-70
2023/06/10 03:28:59;;;;;;;6.73;3.40;;;22.00;32.50;;;;;;5072629;28;20229;-70
2023/06/10 03:31:27;;;;;;;5.07;1.83;;;22.10;31.90;;;;;;5072633;28;20184;-69
2023/06/10 03:33:54;;;;;;;8.27;4.87;;;21.90;30.60;;;;;;5072809;28;20592;-71
2023/06/10 03:36:22;;;;;;;5.73;1.30;;;22.10;30.80;;;;;;5071956;28;20225;-74
2023/06/10 03:38:51;;;;;;;2.30;0.77;;;22.20;30.30;;;;;;5053375;28;20187;-73
2023/06/10 03:41:19;;;;;;;2.50;0.90;;;22.10;30.00;;;;;;5072074;28;20246;-70
2023/06/10 03:43:46;;;;;;;2.43;0.83;;;22.10;30.80;;;;;;5072413;28;20179;-72
2023/06/10 03:46:14;;;;;;;5.97;1.07;;;22.30;29.70;;;;;;5072321;28;20190;-72
2023/06/10 03:48:42;;;;;;;2.40;0.80;;;22.00;30.00;;;;;;5072122;28;20179;-74
2023/06/10 03:51:09;;;;;;;2.27;1.33;;;21.90;29.30;;;;;;5049819;28;20191;-75
2023/06/10 03:53:37;;;;;;;6.50;3.10;;;21.60;31.10;;;;;;5070784;28;20214;-76
2023/06/10 03:56:04;;;;;;;2.80;1.00;;;21.30;32.70;;;;;;5070716;28;20183;-75
2023/06/10 03:58:32;;;;;;;3.57;0.80;;;21.20;31.40;;;;;;5054793;28;20233;-74
2023/06/10 04:00:59;;;;;;;4.97;0.90;;;21.50;31.50;;;;;;5054633;28;20207;-75
2023/06/10 04:03:27;;;;;;;1.63;0.80;;;21.70;31.50;;;;;;5054595;28;20176;-73
2023/06/10 04:05:54;;;;;;;3.23;0.87;;;21.50;31.30;;;;;;5051990;28;20182;-75
2023/06/10 04:08:22;;;;;;;2.83;0.80;;;21.60;30.00;;;;;;5074687;28;20221;-75
2023/06/10 04:10:49;;;;;;;3.10;0.90;;;21.70;30.20;;;;;;5074605;28;20215;-75
2023/06/10 04:13:16;;;;;;;1.33;0.73;;;21.90;30.90;;;;;;5073835;28;20179;-73
2023/06/10 04:15:44;;;;;;;3.30;0.97;;;21.70;30.90;;;;;;5074073;28;20191;-73
2023/06/10 04:18:11;;;;;;;3.67;0.80;;;21.50;31.00;;;;;;5045611;28;20220;-74
2023/06/10 04:20:38;;;;;;;6.30;1.00;;;21.70;31.40;;;;;;5053974;28;20215;-74
2023/06/10 04:23:06;;;;;;;2.60;0.83;;;21.70;30.80;;;;;;5054184;28;20278;-74
2023/06/10 04:25:34;;;;;;;3.53;1.00;;;21.60;31.20;;;;;;5035919;28;20185;-74
2023/06/10 04:28:01;;;;;;;1.97;0.67;;;21.80;32.10;;;;;;5054183;28;20175;-74
2023/06/10 04:30:32;;;;;;;2.40;0.80;;;21.80;31.10;;;;;;5053665;28;20177;-74
2023/06/10 04:32:59;;;;;;;1.97;0.90;;;21.80;31.40;;;;;;5054245;28;20634;-74
2023/06/10 04:35:27;;;;;;;3.83;1.50;;;21.80;30.00;;;;;;5053768;28;21072;-71
2023/06/10 04:37:55;;;;;;;2.37;0.93;;;21.80;32.20;;;;;;5053912;28;20180;-73
2023/06/10 04:40:22;;;;;;;3.40;1.00;;;21.80;30.70;;;;;;5053816;28;20196;-76
2023/06/10 04:42:50;;;;;;;1.73;0.93;;;21.70;32.80;;;;;;5053911;28;20243;-77
2023/06/10 04:45:17;;;;;;;3.17;0.73;;;21.70;32.60;;;;;;5053277;28;20207;-74
2023/06/10 04:47:44;;;;;;;2.30;0.93;;;21.70;32.30;;;;;;5053155;28;20184;-74
2023/06/10 04:50:12;;;;;;;2.47;0.90;;;21.80;32.20;;;;;;5053537;28;20200;-74
2023/06/10 04:52:41;;;;;;;2.50;1.00;;;21.90;31.50;;;;;;5053788;28;20230;-71
2023/06/10 04:55:09;;;;;;;2.90;0.93;;;21.70;32.00;;;;;;5053397;28;20641;-75
2023/06/10 04:57:37;;;;;;;1.17;0.57;;;21.80;31.80;;;;;;5053546;28;20195;-74
2023/06/10 05:00:06;;;;;;;3.10;1.13;;;21.50;31.90;;;;;;5053372;28;20183;-74
2023/06/10 05:02:33;;;;;;;1.87;0.73;;;21.50;32.90;;;;;;5053561;28;20715;-70
2023/06/10 05:05:00;;;;;;;3.90;0.80;;;21.20;31.00;;;;;;5053501;28;20181;-76
2023/06/10 05:07:28;;;;;;;2.47;0.70;;;21.40;33.10;;;;;;5053413;28;20192;-75
2023/06/10 05:09:55;;;;;;;4.97;0.87;;;21.50;32.80;;;;;;5052192;28;20176;-73
2023/06/10 05:12:22;;;;;;;2.23;0.97;;;21.30;32.00;;;;;;5053403;28;20181;-75
2023/06/10 05:14:50;;;;;;;4.27;1.20;;;21.20;32.10;;;;;;5053231;28;20183;-75
2023/06/10 05:17:17;;;;;;;3.47;0.90;;;21.10;33.60;;;;;;5053039;28;20228;-75
2023/06/10 05:19:44;;;;;;;2.97;1.03;;;20.90;33.90;;;;;;5053295;28;20209;-75
2023/06/10 05:22:13;;;;;;;2.83;1.03;;;20.80;33.60;;;;;;5052945;28;20267;-69
2023/06/10 05:24:41;;;;;;;2.07;0.70;;;20.70;35.80;;;;;;5053238;28;20184;-76
2023/06/10 05:27:08;;;;;;;3.47;0.80;;;20.50;35.00;;;;;;5034900;28;20180;-75
2023/06/10 05:29:36;;;;;;;3.67;0.93;;;20.20;36.50;;;;;;5054488;28;20180;-76
2023/06/10 05:32:03;;;;;;;2.00;0.70;;;19.90;37.00;;;;;;5054226;28;20172;-75
2023/06/10 05:34:31;;;;;;;4.37;0.93;;;19.50;37.10;;;;;;5053094;28;20169;-75
2023/06/10 05:36:58;;;;;;;3.83;1.00;;;19.20;39.30;;;;;;5054351;28;20713;-74
2023/06/10 05:39:26;;;;;;;3.03;0.83;;;19.00;41.20;;;;;;5052815;28;20287;-72
2023/06/10 05:41:53;;;;;;;2.07;1.13;;;18.80;42.50;;;;;;5052456;28;20216;-75
2023/06/10 05:44:20;;;;;;;4.20;1.07;;;18.60;43.20;;;;;;5052724;28;20518;-75
2023/06/10 05:46:48;;;;;;;3.93;1.07;;;18.60;45.20;;;;;;5052637;28;20180;-73
2023/06/10 05:49:15;;;;;;;2.70;0.93;;;18.50;45.20;;;;;;5052418;28;20176;-74
2023/06/10 05:51:42;;;;;;;3.20;1.40;;;18.40;46.40;;;;;;5051880;28;20201;-75
2023/06/10 05:54:10;;;;;;;4.53;1.00;;;18.30;46.70;;;;;;5052336;28;20645;-75
2023/06/10 05:56:37;;;;;;;2.10;1.07;;;18.20;49.80;;;;;;5051999;28;20188;-75
2023/06/10 05:59:06;;;;;;;2.20;0.97;;;18.10;51.10;;;;;;5043609;28;20188;-74
2023/06/10 06:01:33;;;;;;;1.43;0.90;;;17.90;51.50;;;;;;5051176;28;20220;-74
2023/06/10 06:04:01;;;;;;;8.27;5.07;;;17.80;56.00;;;;;;5052217;28;20168;-77
2023/06/10 06:06:28;;;;;;;5.63;3.10;;;17.60;56.40;;;;;;5052266;28;20574;-74
2023/06/10 06:08:55;;;;;;;13.43;8.77;;;17.50;60.50;;;;;;5033126;28;20550;-73
2023/06/10 06:11:24;;;;;;;7.33;4.37;;;17.40;60.80;;;;;;5051978;28;20264;-73
2023/06/10 06:13:51;;;;;;;4.43;1.57;;;17.40;62.00;;;;;;5033827;28;20185;-75
2023/06/10 06:16:18;;;;;;;4.63;1.70;;;17.20;65.50;;;;;;5034246;28;20180;-75
2023/06/10 06:18:46;;;;;;;3.87;1.50;;;17.10;74.20;;;;;;5066608;28;20227;-74
2023/06/10 06:21:13;;;;;;;4.90;1.47;;;17.10;72.90;;;;;;5071612;28;20203;-74
2023/06/10 06:23:41;;;;;;;4.93;1.43;;;17.00;75.60;;;;;;5071796;28;20255;-76
2023/06/10 06:26:08;;;;;;;6.23;1.30;;;16.80;79.10;;;;;;5071958;28;20226;-72
2023/06/10 06:28:35;;;;;;;4.33;1.20;;;16.70;85.90;;;;;;5071390;28;20254;-75
2023/06/10 06:31:03;;;;;;;5.87;1.40;;;16.50;90.40;;;;;;5053866;28;20198;-73
2023/06/10 06:33:30;;;;;;;3.30;1.30;;;16.40;92.90;;;;;;5071687;28;20167;-72
2023/06/10 06:36:00;;;;;;;2.93;1.10;;;16.30;98.70;;;;;;5073713;28;20309;-75
2023/06/10 06:38:27;;;;;;;2.00;1.20;;;16.10;99.90;;;;;;5076659;28;20183;-74
2023/06/10 06:40:55;;;;;;;3.23;1.30;;;16.00;99.90;;;;;;5062421;28;20208;-74
2023/06/10 06:43:22;;;;;;;6.17;1.43;;;15.80;99.90;;;;;;5071470;28;20172;-73
2023/06/10 06:45:49;;;;;;;4.60;1.30;;;15.70;99.90;;;;;;5071220;28;20176;-74
2023/06/10 06:48:17;;;;;;;3.63;1.20;;;15.60;99.90;;;;;;5071159;28;20187;-72
2023/06/10 06:50:44;;;;;;;4.33;1.60;;;15.50;99.90;;;;;;5072237;28;20172;-72
2023/06/10 06:53:11;;;;;;;5.47;1.70;;;15.40;99.90;;;;;;5071250;28;20180;-74
2023/06/10 06:55:39;;;;;;;5.60;1.80;;;15.20;99.90;;;;;;5053573;28;20231;-73
2023/06/10 06:58:06;;;;;;;3.30;1.60;;;15.10;99.90;;;;;;5070602;28;20183;-75
2023/06/10 07:00:34;;;;;;;4.07;1.43;;;14.90;99.90;;;;;;5071242;28;20207;-74
2023/06/10 07:03:01;;;;;;;3.67;1.63;;;14.70;99.90;;;;;;5053014;28;20177;-75
2023/06/10 07:05:30;;;;;;;3.40;1.10;;;14.50;99.90;;;;;;5070755;28;20180;-72
2023/06/10 07:07:58;;;;;;;5.73;1.57;;;14.40;99.90;;;;;;5071800;28;20189;-73
2023/06/10 07:10:25;;;;;;;4.70;1.50;;;14.20;99.90;;;;;;5071900;28;20438;-76
2023/06/10 07:12:53;;;;;;;3.97;1.30;;;14.10;99.90;;;;;;5054524;28;20184;-73
2023/06/10 07:15:21;;;;;;;4.10;1.70;;;14.00;99.90;;;;;;5066091;28;20195;-73
2023/06/10 07:17:48;;;;;;;4.90;1.70;;;13.90;99.90;;;;;;5073158;28;20242;-73
2023/06/10 07:20:17;;;;;;;3.90;1.67;;;13.80;99.90;;;;;;5077575;28;20210;-66
2023/06/10 07:22:45;;;;;;;4.33;1.60;;;13.70;99.90;;;;;;5075806;28;20556;-73
2023/06/10 07:25:12;;;;;;;6.00;1.67;;;13.60;99.90;;;;;;5076526;28;20172;-72
2023/06/10 07:27:40;;;;;;;4.17;2.00;;;13.60;99.90;;;;;;5074186;28;20183;-73
2023/06/10 07:30:08;;;;;;;5.20;1.70;;;13.50;99.90;;;;;;5070806;28;20171;-73
2023/06/10 07:32:35;;;;;;;4.37;1.97;;;13.40;99.90;;;;;;5070190;28;20265;-72
2023/06/10 07:35:03;;;;;;;4.60;1.80;;;13.20;99.90;;;;;;5070801;28;20178;-74
2023/06/10 07:37:30;;;;;;;4.93;2.30;;;13.20;99.90;;;;;;5070234;28;20640;-73
2023/06/10 07:39:58;;;;;;;9.40;2.00;;;13.10;99.90;;;;;;5070408;28;20181;-73
2023/06/10 07:42:25;;;;;;;4.47;2.13;;;13.00;99.90;;;;;;5070175;28;20182;-73
2023/06/10 07:44:52;;;;;;;3.17;1.53;;;12.90;99.90;;;;;;5070313;28;20179;-72
2023/06/10 07:47:20;;;;;;;8.50;2.23;;;12.90;99.90;;;;;;5070571;28;20179;-72
2023/06/10 07:49:47;;;;;;;5.03;3.13;;;12.80;99.90;;;;;;5070081;28;20202;-73
2023/06/10 07:52:14;;;;;;;4.93;2.90;;;12.60;99.90;;;;;;5070343;28;20189;-73
2023/06/10 07:54:42;;;;;;;7.07;3.63;;;12.50;99.90;;;;;;5070255;28;20182;-73
2023/06/10 07:57:12;;;;;;;9.10;3.83;;;12.50;99.90;;;;;;5070284;28;20674;-71
2023/06/10 07:59:40;;;;;;;13.70;3.80;;;12.40;99.90;;;;;;5051830;28;20629;-74
2023/06/10 08:02:07;;;;;;;10.37;3.73;;;12.40;99.90;;;;;;5070347;28;20226;-74
2023/06/10 08:04:35;;;;;;;9.67;3.77;;;12.20;99.90;;;;;;5069981;28;20179;-74
2023/06/10 08:07:03;;;;;;;9.03;3.80;;;12.20;99.90;;;;;;5052101;28;20187;-72
2023/06/10 08:09:30;;;;;;;8.17;3.93;;;12.10;99.90;;;;;;5070178;28;20246;-74
2023/06/10 08:11:57;;;;;;;18.27;4.30;;;12.00;99.90;;;;;;5070126;28;20179;-74
2023/06/10 08:14:25;;;;;;;15.43;3.33;;;12.00;99.90;;;;;;5070092;28;20354;-73
2023/06/10 08:16:52;;;;;;;9.53;3.20;;;11.90;99.90;;;;;;5069947;28;20174;-73
2023/06/10 08:19:20;;;;;;;13.43;4.30;;;11.80;99.90;;;;;;5069834;28;20583;-73
2023/06/10 08:21:47;;;;;;;8.77;3.70;;;11.80;99.90;;;;;;5070043;28;20304;-74
2023/06/10 08:24:21;;;;;;;8.50;3.77;;;11.70;99.90;;;;;;5070624;28;20179;-74
2023/06/10 08:26:48;;;;;;;8.33;3.77;;;11.50;99.90;;;;;;5069778;28;20184;-72
2023/06/10 08:29:15;;;;;;;11.50;4.37;;;11.50;99.90;;;;;;5070098;28;20185;-71
2023/06/10 08:31:46;;;;;;;10.47;4.23;;;11.40;99.90;;;;;;5069690;28;20277;-70
2023/06/10 08:34:16;;;;;;;9.53;4.17;;;11.40;99.90;;;;;;5068908;28;20593;-71
2023/06/10 08:36:45;;;;;;;14.17;5.67;;;11.40;99.90;;;;;;5069079;28;20189;-72
2023/06/10 08:39:12;;;;;;;10.60;5.37;;;11.40;99.90;;;;;;5069520;28;20181;-72
2023/06/10 08:41:44;;;;;;;10.77;5.30;;;11.30;99.90;;;;;;5069935;28;20296;-73
2023/06/10 08:44:42;;;;;;;12.00;5.20;;;11.30;99.90;;;;;;5071880;28;20185;-73
2023/06/10 08:47:19;;;;;;;14.30;5.70;;;11.20;99.90;;;;;;5069568;28;20272;-71
2023/06/10 08:49:52;;;;;;;14.80;6.53;;;11.10;99.90;;;;;;5073499;28;20180;-74
2023/06/10 08:52:23;;;;;;;15.40;6.40;;;11.00;99.90;;;;;;5073382;28;20280;-73
2023/06/10 08:55:13;;;;;;;11.30;6.10;;;10.90;99.90;;;;;;5072321;28;20602;-74
2023/06/10 08:57:44;;;;;;;15.70;7.07;;;10.90;99.90;;;;;;5062672;28;20199;-75
2023/06/10 09:00:16;;;;;;;15.73;6.70;;;10.80;99.90;;;;;;5072795;28;20192;-73
2023/06/10 09:02:47;;;;;;;12.90;6.60;;;10.80;99.90;;;;;;5072843;28;20500;-75
2023/06/10 09:05:15;;;;;;;12.27;6.50;;;10.80;99.90;;;;;;5073430;28;20241;-73
2023/06/10 09:07:42;;;;;;;12.83;7.30;;;10.80;99.90;;;;;;5063718;28;20180;-76
2023/06/10 09:10:11;;;;;;;15.23;8.40;;;10.80;99.90;;;;;;5070998;28;20180;-72
2023/06/10 09:12:39;;;;;;;16.10;8.17;;;10.70;99.90;;;;;;5074369;28;20450;-73
2023/06/10 09:15:11;;;;;;;12.67;7.80;;;10.70;99.90;;;;;;5054689;28;20237;-72
2023/06/10 09:17:40;;;;;;;14.87;7.73;;;10.60;99.90;;;;;;5048816;28;20270;-73
2023/06/10 09:20:08;;;;;;;16.77;8.57;;;10.50;99.90;;;;;;5052850;28;20644;-72
2023/06/10 09:22:36;;;;;;;14.77;8.77;;;10.50;99.90;;;;;;5036517;28;20194;-71
2023/06/10 09:25:11;;;;;;;13.90;8.93;;;10.40;99.90;;;;;;5054264;28;20653;-73
2023/06/10 09:27:56;;;;;;;19.10;10.10;;;10.40;99.90;;;;;;5054605;28;20171;-75
2023/06/10 09:30:31;;;;;;;19.53;10.03;;;10.40;99.90;;;;;;5035823;28;20182;-71
2023/06/10 09:33:09;;;;;;;19.40;9.73;;;10.30;99.90;;;;;;5054425;28;20186;-73
2023/06/10 09:35:47;;;;;;;16.87;9.30;;;10.30;99.90;;;;;;5054553;28;20264;-75
2023/06/10 09:38:21;;;;;;;18.93;10.63;;;10.30;99.90;;;;;;5054469;28;20666;-76
2023/06/10 09:40:55;;;;;;;15.30;8.70;;;10.20;99.90;;;;;;5054233;28;20206;-73
2023/06/10 09:43:24;;;;;;;21.23;10.30;;;10.20;99.90;;;;;;5054000;28;20589;-73
2023/06/10 09:45:57;;;;;;;17.30;9.03;;;10.10;99.90;;;;;;5053943;28;20181;-74
2023/06/10 09:48:24;;;;;;;17.40;10.00;;;10.10;99.90;;;;;;5054211;28;20166;-76
2023/06/10 09:50:55;;;;;;;20.53;10.90;;;10.00;99.90;;;;;;5054084;28;20179;-72
2023/06/10 09:53:22;;;;;;;21.77;12.50;;;10.00;99.90;;;;;;5053541;28;20696;-73
2023/06/10 09:55:49;;;;;;;23.43;13.60;;;9.90;99.90;;;;;;5035584;28;20180;-68
2023/06/10 09:58:17;;;;;;;28.10;16.87;;;9.90;99.90;;;;;;5035866;28;20182;-73
2023/06/10 10:00:45;;;;;;;24.03;14.13;;;9.90;99.90;;;;;;5053316;28;20217;-72
2023/06/10 10:03:23;;;;;;;20.63;12.60;;;9.90;99.90;;;;;;5053868;28;20265;-73
2023/06/10 10:05:57;;;;;;;20.70;10.47;;;9.80;99.90;;;;;;5053948;28;20185;-71
2023/06/10 10:08:25;;;;;;;18.60;10.10;;;9.70;99.90;;;;;;5053818;28;20172;-73
2023/06/10 10:10:56;;;;;;;15.77;10.20;;;9.70;99.90;;;;;;5053712;28;20175;-74
2023/06/10 10:13:27;;;;;;;20.23;10.60;;;9.60;99.90;;;;;;5055836;28;20197;-71
2023/06/10 10:16:00;;;;;;;19.50;9.97;;;9.60;99.90;;;;;;5036541;28;20177;-74
2023/06/10 10:18:31;;;;;;;18.07;9.27;;;9.50;99.90;;;;;;5053475;28;20295;-73
2023/06/10 10:21:04;;;;;;;17.03;9.83;;;9.40;99.90;;;;;;5053387;28;20205;-76
2023/06/10 10:24:04;;;;;;;17.50;9.40;;;9.40;99.90;;;;;;5053467;28;20185;-74
2023/06/10 10:26:33;;;;;;;18.17;10.57;;;9.40;99.90;;;;;;5032281;28;20181;-73
2023/06/10 10:29:08;;;;;;;19.00;11.73;;;9.40;99.90;;;;;;5053329;28;20237;-73
2023/06/10 10:31:37;;;;;;;27.03;18.80;;;9.30;99.90;;;;;;5053177;28;20192;-74
2023/06/10 10:34:09;;;;;;;31.87;20.47;;;9.30;99.90;;;;;;5053445;28;20177;-72
2023/06/10 10:36:37;;;;;;;34.20;23.67;;;9.30;99.90;;;;;;5053408;28;20171;-73
2023/06/10 10:39:06;;;;;;;29.33;18.90;;;9.20;99.90;;;;;;5053040;28;20181;-73
2023/06/10 10:41:36;;;;;;;32.80;17.20;;;9.20;99.90;;;;;;5052810;28;20210;-73
2023/06/10 10:44:07;;;;;;;34.80;17.70;;;9.20;99.90;;;;;;5052659;28;20176;-70
2023/06/10 10:46:56;;;;;;;24.53;15.33;;;9.10;99.90;;;;;;5053123;28;20550;-72
2023/06/10 10:49:28;;;;;;;28.17;13.80;;;9.10;99.90;;;;;;5035057;28;20294;-75
2023/06/10 10:52:05;;;;;;;22.23;13.60;;;9.10;99.90;;;;;;5052902;28;20394;-73
2023/06/10 10:54:34;;;;;;;22.83;13.90;;;9.00;99.90;;;;;;5052910;28;20178;-73
2023/06/10 10:57:21;;;;;;;23.60;12.40;;;9.00;99.90;;;;;;5052581;28;20207;-73
2023/06/10 11:00:04;;;;;;;25.03;12.93;;;8.90;99.90;;;;;;5052963;28;20182;-74
2023/06/10 11:02:45;;;;;;;19.40;11.17;;;8.80;99.90;;;;;;5052457;28;20267;-74
2023/06/10 11:05:31;;;;;;;19.97;12.03;;;8.80;99.90;;;;;;5052400;28;20176;-72
2023/06/10 11:07:58;;;;;;;20.63;12.03;;;8.80;99.90;;;;;;5051962;28;20185;-72
2023/06/10 11:10:39;;;;;;;19.37;10.53;;;8.70;99.90;;;;;;5052147;28;20185;-73
2023/06/10 11:13:19;;;;;;;19.77;11.20;;;8.70;99.90;;;;;;5052434;28;20180;-71
2023/06/10 11:15:51;;;;;;;20.47;10.17;;;8.80;99.90;;;;;;5052527;28;20273;-70
2023/06/10 11:18:23;;;;;;;17.93;9.63;;;8.80;99.90;;;;;;5052655;28;20752;-70
2023/06/10 11:20:52;;;;;;;18.63;9.83;;;8.70;99.90;;;;;;5052417;28;20326;-74
2023/06/10 11:23:29;;;;;;;19.90;9.70;;;8.70;99.90;;;;;;5034456;28;20182;-75
2023/06/10 11:26:30;;;;;;;16.10;9.83;;;8.60;99.90;;;;;;5052672;28;20566;-75
2023/06/10 11:28:58;;;;;;;16.70;10.07;;;8.50;99.90;;;;;;5034617;28;20188;-73
2023/06/10 11:31:27;;;;;;;15.37;9.40;;;8.50;99.90;;;;;;5052250;28;20350;-71
2023/06/10 11:33:56;;;;;;;17.57;9.20;;;8.40;99.90;;;;;;5051908;28;20264;-72
2023/06/10 11:36:24;;;;;;;20.57;9.63;;;8.40;99.90;;;;;;5052227;28;20226;-71
2023/06/10 11:39:02;;;;;;;16.17;9.97;;;8.40;99.90;;;;;;5052262;28;20242;-72
2023/06/10 11:41:32;;;;;;;16.43;9.33;;;8.40;99.90;;;;;;5052072;28;20216;-72
2023/06/10 11:44:07;;;;;;;14.83;8.73;;;8.40;99.90;;;;;;5052015;28;20181;-74
2023/06/10 11:46:35;;;;;;;15.37;8.07;;;8.30;99.90;;;;;;5052247;28;20551;-74
2023/06/10 11:49:05;;;;;;;16.60;8.60;;;8.30;99.90;;;;;;5051845;28;20177;-72
2023/06/10 11:51:40;;;;;;;13.57;8.10;;;8.30;99.90;;;;;;5034091;28;20188;-71
2023/06/10 11:54:10;;;;;;;14.73;8.80;;;8.20;99.90;;;;;;5051671;28;20206;-69
2023/06/10 11:56:37;;;;;;;12.47;8.37;;;8.20;99.90;;;;;;5052122;28;20659;-70
2023/06/10 11:59:08;;;;;;;14.03;7.77;;;8.20;99.90;;;;;;5051718;28;20173;-70
2023/06/10 12:01:39;;;;;;;13.13;8.50;;;8.10;99.90;;;;;;5033988;28;20663;-74
2023/06/10 12:04:09;;;;;;;15.37;7.97;;;8.10;99.90;;;;;;5051820;28;20263;-72
2023/06/10 12:06:41;;;;;;;13.20;8.53;;;8.00;99.90;;;;;;5052123;28;20666;-73
2023/06/10 12:09:19;;;;;;;16.57;9.13;;;8.00;99.90;;;;;;5051950;28;20263;-72
2023/06/10 12:11:53;;;;;;;17.03;9.03;;;8.00;99.90;;;;;;5051905;28;20175;-72
2023/06/10 12:14:58;;;;;;;15.63;7.87;;;7.90;99.90;;;;;;5050905;28;20267;-70
2023/06/10 12:17:32;;;;;;;15.50;7.97;;;7.90;99.90;;;;;;5049545;28;20220;-74
2023/06/10 12:20:09;;;;;;;13.17;8.13;;;7.90;99.90;;;;;;5055173;28;20179;-70
2023/06/10 12:22:38;;;;;;;14.13;7.33;;;7.90;99.90;;;;;;5054876;28;20188;-71
2023/06/10 12:25:07;;;;;;;11.77;7.83;;;7.90;99.90;;;;;;5054792;28;20173;-72
2023/06/10 12:27:36;;;;;;;12.53;8.03;;;7.80;99.90;;;;;;5054605;28;20192;-71
2023/06/10 12:30:06;;;;;;;13.50;7.90;;;7.70;99.90;;;;;;5054579;28;20275;-69
2023/06/10 12:32:53;;;;;;;14.87;8.20;;;7.70;99.90;;;;;;5055158;28;20200;-73
2023/06/10 12:35:28;;;;;;;14.20;7.77;;;7.60;99.90;;;;;;5054764;28;20695;-69
2023/06/10 12:38:11;;;;;;;12.03;7.77;;;7.70;99.90;;;;;;5054918;28;20172;-69
2023/06/10 12:40:40;;;;;;;14.27;10.10;;;7.70;99.90;;;;;;5054526;28;20220;-70
2023/06/10 12:43:08;;;;;;;20.40;10.80;;;7.70;99.90;;;;;;5054686;28;20264;-71
2023/06/10 12:45:44;;;;;;;18.27;11.77;;;7.70;99.90;;;;;;5054739;28;20192;-72
2023/06/10 12:48:21;;;;;;;17.33;10.17;;;7.60;99.90;;;;;;5036745;28;20189;-71
2023/06/10 12:50:59;;;;;;;16.40;9.87;;;7.50;99.90;;;;;;5037521;28;20286;-72
2023/06/10 12:53:27;;;;;;;18.03;9.73;;;7.50;99.90;;;;;;5055231;28;20188;-70
2023/06/10 12:55:55;;;;;;;20.20;11.00;;;7.50;99.90;;;;;;5055076;28;20172;-72
2023/06/10 12:58:24;;;;;;;19.17;10.13;;;7.40;99.90;;;;;;5054686;28;20183;-73
2023/06/10 13:00:52;;;;;;;21.37;10.00;;;7.30;99.90;;;;;;5054820;28;20200;-73